Date,TemperatureHighF,TemperatureAvgF,TemperatureLowF,DewpointHighF,DewpointAvgF,DewpointLowF,HumidityHigh,HumidityAvg,HumidityLow,PressureMaxIn,PressureMinIn,WindSpeedMaxMPH,WindSpeedAvgMPH,GustSpeedMaxMPH,PrecipitationSumIn
2013-2-1,28.5,24.7,18.7,21.1,13.2,8.1,89,62,48,30.30,29.82,30,2,30,0.00
2013-2-2,26.2,20.8,13.5,22.2,12.4,6.4,96,71,53,30.33,30.04,13,0,13,0.00
2013-2-3,28.9,24.5,20.1,24.9,21.7,15.9,97,89,71,30.04,29.82,15,0,15,0.02
2013-2-4,28.6,23.6,17.5,22.8,14.9,11.2,86,69,59,30.05,29.88,15,1,15,0.00
2013-2-5,31.4,28.8,26.2,29.4,26.7,22.5,97,92,85,29.96,29.89,1,0,1,0.01
2013-2-6,37.3,30.4,24.7,29.3,25.4,17.1,99,82,63,30.36,29.93,15,0,15,0.01
2013-2-7,32.5,28.0,23.2,24.0,18.4,14.3,76,67,55,30.49,30.27,13,0,13,0.00
2013-2-8,34.2,32.5,30.5,34.0,31.3,24.3,100,95,77,30.27,29.71,18,1,19,0.18
2013-2-9,31.6,25.9,20.6,31.5,19.9,12.4,100,79,58,30.39,29.80,31,4,31,0.03
2013-2-10,38.7,26.8,14.5,25.0,15.6,9.8,83,64,42,30.50,30.31,15,0,15,0.05
2013-2-11,47.4,38.5,31.0,47.4,37.6,25.4,100,96,79,30.32,29.67,10,0,14,0.04
2013-2-12,43.7,38.2,29.1,39.6,29.3,24.0,97,71,57,29.99,29.77,23,1,23,0.00
2013-2-13,42.0,33.4,24.9,31.9,28.0,22.4,99,82,63,29.97,29.68,2,0,2,0.00
2013-2-14,44.4,35.3,30.1,35.4,31.2,27.9,100,86,59,30.02,29.72,10,0,10,0.20
2013-2-15,55.4,41.5,32.0,39.0,33.9,28.6,97,76,51,30.02,29.91,20,0,20,0.08
2013-2-16,35.1,32.0,27.9,32.3,27.4,15.8,100,84,61,29.99,29.78,24,3,24,0.05
2013-2-17,28.8,24.8,18.8,17.4,11.1,5.1,72,56,47,30.10,29.75,25,6,25,0.00
2013-2-18,34.4,25.1,17.1,16.8,12.0,5.3,68,57,46,30.33,30.10,20,2,20,0.00
2013-2-19,41.4,35.7,28.6,40.9,30.7,15.7,99,83,59,30.20,29.71,14,0,14,0.16
2013-2-20,33.0,27.3,22.3,28.8,16.4,11.9,85,63,54,30.07,29.79,21,4,21,0.00
2013-2-21,33.2,26.8,21.5,19.2,16.2,11.9,73,64,54,30.32,30.05,25,4,25,0.00
2013-2-22,34.2,28.3,20.3,30.8,21.9,15.2,90,77,68,30.41,30.25,12,0,13,0.00
2013-2-23,44.3,38.0,32.7,44.3,37.8,30.7,100,99,90,30.26,29.81,11,0,11,0.07
2013-2-24,43.2,36.5,28.9,40.3,31.2,21.4,100,82,64,30.04,29.77,26,2,26,0.01
2013-2-25,43.7,34.6,27.8,32.0,26.4,22.1,82,72,60,30.24,30.04,18,1,18,0.00
2013-2-26,43.1,35.5,28.0,35.8,30.8,24.1,99,83,67,30.25,29.78,24,2,24,0.36
2013-2-27,49.1,42.8,36.1,46.4,40.1,35.8,100,91,77,29.78,29.50,25,2,25,0.23
2013-2-28,44.0,40.0,32.6,36.5,33.7,29.0,92,79,58,29.67,29.57,11,0,11,0.00